Time;durP1;ratioP1;P1;durP2;ratioP2;P2;SDS_P1;SDS_P2;PMS_P1;PMS_P2;Temp;Humidity;BMP_temperature;BMP_pressure;BME280_temperature;BME280_humidity;BME280_pressure;Samples;Min_cycle;Max_cycle;Signal;HPM_P1;HPM_P2
2023/03/29 00:01:29;;;;;;;;;;;;;;;;;;4906706;29;19934;-95
2023/03/29 00:03:55;;;;;;;;;;;;;;;;;;4906749;29;19923;-95
2023/03/29 00:06:21;;;;;;;;;;;;;;;;;;4906458;29;19947;-93
2023/03/29 00:08:50;;;;;;;;;;;;;;;;;;4906647;29;19923;-93
2023/03/29 00:11:16;;;;;;;;;;;;;;;;;;4906564;29;19923;-95
2023/03/29 00:13:42;;;;;;;;;;;;;;;;;;4906462;29;19926;-94
2023/03/29 00:16:07;;;;;;;;;;;;;;;;;;4906680;29;19945;-94
2023/03/29 00:18:33;;;;;;;;;;;;;;;;;;4906427;29;20436;-95
2023/03/29 00:21:00;;;;;;;;;;;;;;;;;;4906413;29;19927;-95
2023/03/29 00:23:25;;;;;;;;;;;;;;;;;;4906279;29;19922;-94
2023/03/29 00:25:51;;;;;;;;;;;;;;;;;;4906854;29;19985;-96
2023/03/29 00:28:17;;;;;;;;;;;;;;;;;;4906372;29;19923;-95
2023/03/29 00:30:43;;;;;;;;;;;;;;;;;;4907133;29;19989;-96
2023/03/29 00:33:31;;;;;;;;;;;;;;;;;;4907471;29;19986;-96
2023/03/29 00:36:06;;;;;;;;;;;;;;;;;;4922699;29;19923;-96
2023/03/29 00:38:50;;;;;;;;;;;;;;;;;;4907424;29;19970;-96
2023/03/29 00:41:16;;;;;;;;;;;;;;;;;;4907255;29;20491;-95
2023/03/29 00:44:03;;;;;;;;;;;;;;;;;;4913097;29;20057;-95
2023/03/29 00:49:17;;;;;;;;;;;;;;;;;;4921251;29;19965;-95
2023/03/29 00:51:46;;;;;;;;;;;;;;;;;;4910697;29;19930;-96
2023/03/29 00:54:17;;;;;;;;;;;;;;;;;;4909877;29;20009;-96
2023/03/29 00:56:43;;;;;;;;;;;;;;;;;;4909737;29;19929;-96
2023/03/29 00:59:11;;;;;;;;;;;;;;;;;;4910556;29;19971;-96
2023/03/29 01:01:46;;;;;;;;;;;;;;;;;;4911385;29;19926;-96
2023/03/29 01:04:17;;;;;;;;;;;;;;;;;;4911650;29;19990;-95
2023/03/29 01:06:44;;;;;;;;;;;;;;;;;;4908909;29;20370;-93
2023/03/29 01:09:11;;;;;;;;;;;;;;;;;;4907932;29;20022;-95
2023/03/29 01:11:40;;;;;;;;;;;;;;;;;;4907026;29;19927;-95
2023/03/29 01:14:06;;;;;;;;;;;;;;;;;;4905702;29;19929;-95
2023/03/29 01:16:33;;;;;;;;;;;;;;;;;;4905956;29;20013;-96
2023/03/29 01:18:59;;;;;;;;;;;;;;;;;;4905411;29;19929;-95
2023/03/29 01:21:26;;;;;;;;;;;;;;;;;;4905160;29;19927;-95
2023/03/29 01:23:55;;;;;;;;;;;;;;;;;;4904836;29;20005;-96
2023/03/29 01:29:28;;;;;;;;;;;;;;;;;;4870498;29;20023;-96
2023/03/29 01:31:54;;;;;;;;;;;;;;;;;;4905793;29;20014;-96
2023/03/29 01:34:24;;;;;;;;;;;;;;;;;;4906455;29;20055;-96
2023/03/29 01:36:50;;;;;;;;;;;;;;;;;;4906019;29;19927;-95
2023/03/29 01:39:19;;;;;;;;;;;;;;;;;;4904955;29;19923;-94
2023/03/29 01:41:45;;;;;;;;;;;;;;;;;;4904892;29;19982;-94
2023/03/29 01:44:10;;;;;;;;;;;;;;;;;;4921121;29;19931;-94
2023/03/29 01:46:36;;;;;;;;;;;;;;;;;;4904785;29;19930;-95
2023/03/29 01:49:02;;;;;;;;;;;;;;;;;;4904895;29;20394;-94
2023/03/29 01:51:28;;;;;;;;;;;;;;;;;;4905086;29;20430;-95
2023/03/29 01:53:54;;;;;;;;;;;;;;;;;;4904486;29;19974;-94
2023/03/29 01:56:21;;;;;;;;;;;;;;;;;;4904587;29;20009;-94
2023/03/29 01:58:47;;;;;;;;;;;;;;;;;;4905199;29;20021;-95
2023/03/29 02:01:16;;;;;;;;;;;;;;;;;;4904895;29;20021;-96
2023/03/29 02:03:52;;;;;;;;;;;;;;;;;;;;;
2023/03/29 02:06:19;;;;;;;;;;;;;;;;;;4920362;29;19930;-94
2023/03/29 02:08:45;;;;;;;;;;;;;;;;;;4904296;29;19930;-95
2023/03/29 02:11:11;;;;;;;;;;;;;;;;;;4904357;29;20049;-93
2023/03/29 02:13:37;;;;;;;;;;;;;;;;;;4904287;29;19923;-94
2023/03/29 02:16:24;;;;;;;;;;;;;;;;;;4904015;29;20022;-95
2023/03/29 02:18:59;;;;;;;;;;;;;;;;;;4919519;29;19923;-95
2023/03/29 02:21:25;;;;;;;;;;;;;;;;;;4903918;29;19973;-96
2023/03/29 02:23:53;;;;;;;;;;;;;;;;;;4904494;29;20298;-95
2023/03/29 02:26:22;;;;;;;;;;;;;;;;;;4904265;29;19923;-94
2023/03/29 02:28:48;;;;;;;;;;;;;;;;;;4904608;29;19922;-96
2023/03/29 02:31:17;;;;;;;;;;;;;;;;;;4903467;29;20276;-96
2023/03/29 02:33:45;;;;;;;;;;;;;;;;;;4904836;29;20401;-96
2023/03/29 02:36:12;;;;;;;;;;;;;;;;;;4904123;29;20101;-93
2023/03/29 02:38:37;;;;;;;;;;;;;;;;;;4904014;29;19930;-94
2023/03/29 02:41:04;;;;;;;;;;;;;;;;;;4903783;29;19927;-94
2023/03/29 02:43:30;;;;;;;;;;;;;;;;;;4903928;29;19929;-93
2023/03/29 02:45:56;;;;;;;;;;;;;;;;;;4904081;29;19930;-94
2023/03/29 02:48:22;;;;;;;;;;;;;;;;;;4904217;29;19927;-95
2023/03/29 02:50:48;;;;;;;;;;;;;;;;;;4904079;29;19923;-95
2023/03/29 02:53:14;;;;;;;;;;;;;;;;;;4904084;29;19955;-95
2023/03/29 02:55:40;;;;;;;;;;;;;;;;;;4903514;29;19962;-95
2023/03/29 02:58:09;;;;;;;;;;;;;;;;;;4904445;29;19923;-95
2023/03/29 03:00:35;;;;;;;;;;;;;;;;;;4904111;29;19930;-95
2023/03/29 03:03:01;;;;;;;;;;;;;;;;;;4903980;29;19927;-95
2023/03/29 03:05:27;;;;;;;;;;;;;;;;;;4903872;29;19921;-95
2023/03/29 03:07:53;;;;;;;;;;;;;;;;;;4903614;29;19981;-95
2023/03/29 03:10:19;;;;;;;;;;;;;;;;;;4903711;29;20282;-96
2023/03/29 03:13:01;;;;;;;;;;;;;;;;;;;;;
2023/03/29 03:15:34;;;;;;;;;;;;;;;;;;4919123;29;19923;-96
2023/03/29 03:18:14;;;;;;;;;;;;;;;;;;4904240;29;19922;-95
2023/03/29 03:21:06;;;;;;;;;;;;;;;;;;4921223;29;19927;-94
2023/03/29 03:23:42;;;;;;;;;;;;;;;;;;4921766;29;19927;-96
2023/03/29 03:26:11;;;;;;;;;;;;;;;;;;4904191;29;19947;-96
2023/03/29 03:31:28;;;;;;;;;;;;;;;;;;4916113;29;19911;-96
2023/03/29 03:34:04;;;;;;;;;;;;;;;;;;;;;
2023/03/29 03:37:03;;;;;;;;;;;;;;;;;;;;;
2023/03/29 03:39:47;;;;;;;;;;;;;;;;;;4921904;29;19974;-96
2023/03/29 03:45:15;;;;;;;;;;;;;;;;;;4917982;29;20370;-96
2023/03/29 03:48:13;;;;;;;;;;;;;;;;;;;;;
2023/03/29 03:56:28;;;;;;;;;;;;;;;;;;4913699;29;19955;-96
2023/03/29 03:59:18;;;;;;;;;;;;;;;;;;4940730;29;19923;-93
2023/03/29 04:01:44;;;;;;;;;;;;;;;;;;4907179;29;20398;-96
2023/03/29 04:13:35;;;;;;;;;;;;;;;;;;;;;
2023/03/29 04:16:09;;;;;;;;;;;;;;;;;;4922585;29;19930;-95
2023/03/29 04:18:38;;;;;;;;;;;;;;;;;;4907047;29;20393;-96
2023/03/29 04:21:13;;;;;;;;;;;;;;;;;;4922461;29;19959;-95
2023/03/29 04:23:52;;;;;;;;;;;;;;;;;;;;;
2023/03/29 04:26:36;;;;;;;;;;;;;;;;;;4922682;29;20013;-96
2023/03/29 04:29:14;;;;;;;;;;;;;;;;;;4907210;29;19923;-95
2023/03/29 04:31:41;;;;;;;;;;;;;;;;;;4907200;29;20013;-96
2023/03/29 04:34:10;;;;;;;;;;;;;;;;;;4906356;29;20291;-96
2023/03/29 04:36:44;;;;;;;;;;;;;;;;;;4906671;29;19974;-96
2023/03/29 04:39:30;;;;;;;;;;;;;;;;;;4921003;29;19956;-96
2023/03/29 04:42:11;;;;;;;;;;;;;;;;;;;;;
2023/03/29 04:44:40;;;;;;;;;;;;;;;;;;4938696;29;19970;-96
2023/03/29 04:47:16;;;;;;;;;;;;;;;;;;;;;
2023/03/29 04:49:58;;;;;;;;;;;;;;;;;;;;;
2023/03/29 04:52:32;;;;;;;;;;;;;;;;;;4922252;29;19930;-96
2023/03/29 04:55:16;;;;;;;;;;;;;;;;;;4921019;29;19923;-96
2023/03/29 04:57:47;;;;;;;;;;;;;;;;;;4906988;29;19978;-95
2023/03/29 05:00:16;;;;;;;;;;;;;;;;;;4906762;29;20366;-96
2023/03/29 05:03:01;;;;;;;;;;;;;;;;;;4906392;29;20273;-95
2023/03/29 05:05:29;;;;;;;;;;;;;;;;;;4906497;29;19930;-96
2023/03/29 05:07:58;;;;;;;;;;;;;;;;;;4906023;29;19923;-96
2023/03/29 05:10:24;;;;;;;;;;;;;;;;;;4905871;29;20370;-96
2023/03/29 05:12:52;;;;;;;;;;;;;;;;;;4906110;29;19969;-96
2023/03/29 05:15:18;;;;;;;;;;;;;;;;;;4905802;29;19934;-95
2023/03/29 05:17:44;;;;;;;;;;;;;;;;;;4906904;29;19910;-96
2023/03/29 05:20:16;;;;;;;;;;;;;;;;;;4906013;29;19937;-96
2023/03/29 05:22:42;;;;;;;;;;;;;;;;;;4906049;29;19934;-96
2023/03/29 05:25:19;;;;;;;;;;;;;;;;;;4905421;29;19923;-96
2023/03/29 05:27:47;;;;;;;;;;;;;;;;;;4904277;29;19954;-96
2023/03/29 05:30:19;;;;;;;;;;;;;;;;;;4905846;29;20274;-96
2023/03/29 05:32:46;;;;;;;;;;;;;;;;;;4905587;29;19926;-96
2023/03/29 05:35:12;;;;;;;;;;;;;;;;;;4905396;29;19923;-96
2023/03/29 05:37:38;;;;;;;;;;;;;;;;;;4905495;29;20377;-96
2023/03/29 05:40:09;;;;;;;;;;;;;;;;;;4905357;29;19923;-95
2023/03/29 05:42:41;;;;;;;;;;;;;;;;;;4920588;29;20021;-96
2023/03/29 05:45:10;;;;;;;;;;;;;;;;;;4905152;29;19922;-96
2023/03/29 05:47:36;;;;;;;;;;;;;;;;;;4905351;29;20006;-91
2023/03/29 05:50:03;;;;;;;;;;;;;;;;;;4904452;29;20399;-94
2023/03/29 05:52:29;;;;;;;;;;;;;;;;;;4908091;29;19926;-91
2023/03/29 05:54:55;;;;;;;;;;;;;;;;;;4903771;29;19950;-92
2023/03/29 05:57:21;;;;;;;;;;;;;;;;;;4904051;29;19923;-91
2023/03/29 05:59:47;;;;;;;;;;;;;;;;;;4903751;29;19946;-92
2023/03/29 06:02:15;;;;;;;;;;;;;;;;;;4904685;29;19974;-91
2023/03/29 06:04:42;;;;;;;;;;;;;;;;;;4920476;29;19949;-90
2023/03/29 06:07:09;;;;;;;;;;;;;;;;;;4904429;29;19923;-91
2023/03/29 06:09:35;;;;;;;;;;;;;;;;;;4904438;29;20378;-92
2023/03/29 06:12:01;;;;;;;;;;;;;;;;;;4904237;29;19922;-92
2023/03/29 06:14:27;;;;;;;;;;;;;;;;;;4903318;29;19923;-92
2023/03/29 06:16:53;;;;;;;;;;;;;;;;;;4904008;29;19999;-92
2023/03/29 06:19:19;;;;;;;;;;;;;;;;;;4904006;29;19977;-92
2023/03/29 06:21:48;;;;;;;;;;;;;;;;;;4920006;29;19934;-93
2023/03/29 06:24:15;;;;;;;;;;;;;;;;;;4904448;29;19923;-93
2023/03/29 06:26:41;;;;;;;;;;;;;;;;;;4904590;29;19978;-93
2023/03/29 06:29:08;;;;;;;;;;;;;;;;;;4904456;29;19927;-92
2023/03/29 06:31:34;;;;;;;;;;;;;;;;;;4904524;29;20302;-92
2023/03/29 06:34:01;;;;;;;;;;;;;;;;;;4920077;29;19947;-93
2023/03/29 06:36:27;;;;;;;;;;;;;;;;;;4903965;29;19923;-95
2023/03/29 06:38:54;;;;;;;;;;;;;;;;;;4904127;29;19923;-93
2023/03/29 06:41:20;;;;;;;;;;;;;;;;;;4904746;29;19942;-93
2023/03/29 06:43:46;;;;;;;;;;;;;;;;;;4905000;29;20121;-93
2023/03/29 06:46:13;;;;;;;;;;;;;;;;;;4903869;29;20134;-93
2023/03/29 06:48:39;;;;;;;;;;;;;;;;;;4903255;29;19934;-90
2023/03/29 06:51:07;;;;;;;;;;;;;;;;;;4903947;29;19923;-92
2023/03/29 06:53:33;;;;;;;;;;;;;;;;;;4919628;29;20079;-92
2023/03/29 06:55:59;;;;;;;;;;;;;;;;;;4922168;29;20040;-92
2023/03/29 06:58:28;;;;;;;;;;;;;;;;;;4938497;29;19922;-92
2023/03/29 07:00:57;;;;;;;;;;;;;;;;;;4922470;29;20017;-91
2023/03/29 07:03:24;;;;;;;;;;;;;;;;;;4922107;29;19976;-94
2023/03/29 07:05:51;;;;;;;;;;;;;;;;;;4923623;29;19922;-91
2023/03/29 07:08:19;;;;;;;;;;;;;;;;;;4925518;29;19930;-89
2023/03/29 07:10:46;;;;;;;;;;;;;;;;;;4925970;29;19929;-92
2023/03/29 07:13:12;;;;;;;;;;;;;;;;;;4942176;29;20330;-90
2023/03/29 07:15:38;;;;;;;;;;;;;;;;;;4934862;29;20022;-89
2023/03/29 07:18:04;;;;;;;;;;;;;;;;;;4927221;29;19970;-90
2023/03/29 07:20:30;;;;;;;;;;;;;;;;;;4925623;29;19937;-91
2023/03/29 07:22:56;;;;;;;;;;;;;;;;;;4926165;29;19923;-90
2023/03/29 07:25:22;;;;;;;;;;;;;;;;;;4926340;29;19930;-91
2023/03/29 07:27:51;;;;;;;;;;;;;;;;;;4926144;29;19929;-93
2023/03/29 07:30:29;;;;;;;;;;;;;;;;;;4926852;29;20006;-93
2023/03/29 07:32:59;;;;;;;;;;;;;;;;;;4942410;29;19922;-92
2023/03/29 07:35:25;;;;;;;;;;;;;;;;;;4925870;29;19929;-94
2023/03/29 07:37:51;;;;;;;;;;;;;;;;;;4926445;29;19923;-92
2023/03/29 07:40:18;;;;;;;;;;;;;;;;;;4926399;29;19982;-92
2023/03/29 07:42:44;;;;;;;;;;;;;;;;;;4925882;29;19929;-95
2023/03/29 07:45:12;;;;;;;;;;;;;;;;;;4925679;29;19930;-94
2023/03/29 07:47:38;;;;;;;;;;;;;;;;;;4926638;29;19926;-94
2023/03/29 07:50:04;;;;;;;;;;;;;;;;;;4926664;29;20362;-94
2023/03/29 07:52:31;;;;;;;;;;;;;;;;;;4926179;29;19933;-94
2023/03/29 07:54:57;;;;;;;;;;;;;;;;;;4926338;28;19926;-94
2023/03/29 07:57:23;;;;;;;;;;;;;;;;;;4926093;29;20448;-95
2023/03/29 07:59:49;;;;;;;;;;;;;;;;;;4925928;29;19945;-94
2023/03/29 08:02:15;;;;;;;;;;;;;;;;;;4925710;29;19927;-95
2023/03/29 08:04:41;;;;;;;;;;;;;;;;;;4926039;29;19923;-95
2023/03/29 08:07:07;;;;;;;;;;;;;;;;;;4925840;29;19965;-94
2023/03/29 08:09:33;;;;;;;;;;;;;;;;;;4926727;29;19930;-95
2023/03/29 08:11:59;;;;;;;;;;;;;;;;;;4926294;29;19922;-94
2023/03/29 08:14:27;;;;;;;;;;;;;;;;;;4925619;29;20573;-95
2023/03/29 08:16:53;;;;;;;;;;;;;;;;;;4924728;29;19929;-91
2023/03/29 08:19:19;;;;;;;;;;;;;;;;;;4924982;29;19978;-90
2023/03/29 08:21:45;;;;;;;;;;;;;;;;;;4940502;29;20013;-90
2023/03/29 08:24:11;;;;;;;;;;;;;;;;;;4924033;29;20172;-90
2023/03/29 08:26:37;;;;;;;;;;;;;;;;;;4924748;29;20109;-91
2023/03/29 08:29:03;;;;;;;;;;;;;;;;;;4914406;29;20090;-91
2023/03/29 08:31:29;;;;;;;;;;;;;;;;;;4908314;29;19923;-91
2023/03/29 08:33:55;;;;;;;;;;;;;;;;;;4917993;29;19922;-92
2023/03/29 08:36:21;;;;;;;;;;;;;;;;;;4913843;29;20296;-91
2023/03/29 08:38:47;;;;;;;;;;;;;;;;;;4907821;29;19973;-92
2023/03/29 08:41:13;;;;;;;;;;;;;;;;;;4911860;29;19926;-91
2023/03/29 08:43:39;;;;;;;;;;;;;;;;;;4924613;29;20330;-91
2023/03/29 08:46:06;;;;;;;;;;;;;;;;;;4924863;29;19981;-91
2023/03/29 08:48:32;;;;;;;;;;;;;;;;;;4925075;29;19930;-92
2023/03/29 08:50:58;;;;;;;;;;;;;;;;;;4925269;29;20041;-91
2023/03/29 08:53:24;;;;;;;;;;;;;;;;;;4924693;29;19934;-92
2023/03/29 08:55:50;;;;;;;;;;;;;;;;;;4942429;29;19926;-92
2023/03/29 08:58:17;;;;;;;;;;;;;;;;;;4923987;29;19974;-90
2023/03/29 09:00:43;;;;;;;;;;;;;;;;;;4939767;29;19926;-92
2023/03/29 09:03:10;;;;;;;;;;;;;;;;;;4924136;29;19922;-89
2023/03/29 09:05:36;;;;;;;;;;;;;;;;;;4922961;29;19973;-91
2023/03/29 09:08:01;;;;;;;;;;;;;;;;;;4923380;29;19933;-91
2023/03/29 09:10:27;;;;;;;;;;;;;;;;;;4924226;29;19922;-92
2023/03/29 09:12:53;;;;;;;;;;;;;;;;;;4924160;29;20001;-93
2023/03/29 09:15:19;;;;;;;;;;;;;;;;;;4924223;29;20052;-93
2023/03/29 09:17:46;;;;;;;;;;;;;;;;;;4924060;29;19998;-91
2023/03/29 09:20:15;;;;;;;;;;;;;;;;;;4923206;29;19933;-93
2023/03/29 09:22:41;;;;;;;;;;;;;;;;;;4923644;29;19923;-92
2023/03/29 09:25:07;;;;;;;;;;;;;;;;;;4924015;28;19922;-96
2023/03/29 09:27:33;;;;;;;;;;;;;;;;;;4940182;28;19929;-95
2023/03/29 09:29:59;;;;;;;;;;;;;;;;;;4923653;29;19926;-93
2023/03/29 09:32:26;;;;;;;;;;;;;;;;;;4924390;29;19926;-94
2023/03/29 09:34:52;;;;;;;;;;;;;;;;;;4924444;28;19927;-95
2023/03/29 09:37:20;;;;;;;;;;;;;;;;;;4923563;29;20013;-95
2023/03/29 09:39:56;;;;;;;;;;;;;;;;;;4924211;29;19977;-94
2023/03/29 09:42:22;;;;;;;;;;;;;;;;;;4940615;29;19934;-95
2023/03/29 09:44:51;;;;;;;;;;;;;;;;;;4929750;28;19923;-96
2023/03/29 10:18:39;;;;;;;;;;;;;;;;;;5857220;23;20235;-95
2023/03/29 10:21:22;;;;;;;;;;;;;;;;;;4938263;29;20329;-93
2023/03/29 10:23:50;;;;;;;;;;;;;;;;;;4931871;28;19911;-95
2023/03/29 10:26:25;;;;;;;;;;;;;;;;;;4945883;28;19922;-93
2023/03/29 10:28:52;;;;;;;;;;;;;;;;;;4904151;29;19955;-93
2023/03/29 10:31:18;;;;;;;;;;;;;;;;;;4904489;29;19990;-94
2023/03/29 10:33:44;;;;;;;;;;;;;;;;;;4904973;29;20382;-93
2023/03/29 10:36:10;;;;;;;;;;;;;;;;;;4935142;29;19923;-93
2023/03/29 10:38:37;;;;;;;;;;;;;;;;;;4923041;29;20133;-96
2023/03/29 10:41:05;;;;;;;;;;;;;;;;;;4938970;29;19981;-95
2023/03/29 10:43:31;;;;;;;;;;;;;;;;;;4923183;29;19969;-95
2023/03/29 10:45:57;;;;;;;;;;;;;;;;;;4922660;29;19922;-95
2023/03/29 10:48:23;;;;;;;;;;;;;;;;;;4924008;29;19923;-92
2023/03/29 10:50:51;;;;;;;;;;;;;;;;;;4930062;29;19974;-96
2023/03/29 10:53:20;;;;;;;;;;;;;;;;;;4922404;29;19993;-96
2023/03/29 10:55:49;;;;;;;;;;;;;;;;;;4923007;29;20345;-94
2023/03/29 10:58:15;;;;;;;;;;;;;;;;;;4921980;29;19986;-92
2023/03/29 11:00:41;;;;;;;;;;;;;;;;;;4921890;29;20026;-92
2023/03/29 11:03:07;;;;;;;;;;;;;;;;;;4923251;29;19969;-93
2023/03/29 11:05:42;;;;;;;;;;;;;;;;;;4923828;29;19930;-96
2023/03/29 11:08:13;;;;;;;;;;;;;;;;;;4922663;29;19966;-96
2023/03/29 11:10:39;;;;;;;;;;;;;;;;;;4922942;29;20327;-96
2023/03/29 11:16:11;;;;;;;;;;;;;;;;;;4902032;29;19923;-96
2023/03/29 11:40:20;;;;;;;;;;;;;;;;;;5734795;23;19927;-94
2023/03/29 11:43:14;;;;;;;;;;;;;;;;;;4960304;29;19926;-96
2023/03/29 11:46:04;;;;;;;;;;;;;;;;;;4934181;28;19930;-96
2023/03/29 11:51:05;;;;;;;;;;;;;;;;;;6014639;23;21024;-96
2023/03/29 12:12:10;;;;;;;;;;;;;;;;;;5959928;23;21004;-95
2023/03/29 12:14:36;;;;;;;;;;;;;;;;;;4926419;29;19933;-93
2023/03/29 12:17:02;;;;;;;;;;;;;;;;;;4917331;29;20273;-94
2023/03/29 12:19:28;;;;;;;;;;;;;;;;;;4941560;29;19923;-93
2023/03/29 12:21:54;;;;;;;;;;;;;;;;;;4924508;29;20069;-94
2023/03/29 12:24:20;;;;;;;;;;;;;;;;;;4925835;29;20283;-94
2023/03/29 12:26:46;;;;;;;;;;;;;;;;;;4925041;29;19931;-94
2023/03/29 12:29:12;;;;;;;;;;;;;;;;;;4925599;29;19923;-94
2023/03/29 12:31:38;;;;;;;;;;;;;;;;;;4925419;29;19929;-94
2023/03/29 12:34:04;;;;;;;;;;;;;;;;;;4925339;29;19930;-94
2023/03/29 12:36:30;;;;;;;;;;;;;;;;;;4921929;29;19923;-94
2023/03/29 12:38:56;;;;;;;;;;;;;;;;;;4921724;29;20366;-93
2023/03/29 12:41:22;;;;;;;;;;;;;;;;;;4921707;29;19923;-94
2023/03/29 12:43:48;;;;;;;;;;;;;;;;;;4921807;29;20168;-93
2023/03/29 12:46:15;;;;;;;;;;;;;;;;;;4921759;29;19969;-94
2023/03/29 12:48:41;;;;;;;;;;;;;;;;;;4921159;29;19930;-94
2023/03/29 12:51:07;;;;;;;;;;;;;;;;;;4921885;29;19929;-94
2023/03/29 12:53:33;;;;;;;;;;;;;;;;;;4921243;29;19934;-94
2023/03/29 12:55:59;;;;;;;;;;;;;;;;;;4921653;29;19975;-94
2023/03/29 12:58:25;;;;;;;;;;;;;;;;;;4922090;29;19929;-94
2023/03/29 13:00:51;;;;;;;;;;;;;;;;;;4921482;29;20414;-94
2023/03/29 13:03:17;;;;;;;;;;;;;;;;;;4920261;29;19931;-94
2023/03/29 13:05:43;;;;;;;;;;;;;;;;;;4920837;29;19923;-93
2023/03/29 13:08:09;;;;;;;;;;;;;;;;;;4921137;29;19930;-92
2023/03/29 13:10:36;;;;;;;;;;;;;;;;;;4920972;29;19923;-95
2023/03/29 13:13:04;;;;;;;;;;;;;;;;;;4920974;29;19923;-94
2023/03/29 13:18:39;;;;;;;;;;;;;;;;;;5514177;23;19927;-94
2023/03/29 13:21:10;;;;;;;;;;;;;;;;;;4940989;29;19926;-94
2023/03/29 13:23:39;;;;;;;;;;;;;;;;;;4940211;29;19923;-96
2023/03/29 13:26:07;;;;;;;;;;;;;;;;;;4914823;29;19923;-96
2023/03/29 13:28:40;;;;;;;;;;;;;;;;;;4921284;29;19989;-96
2023/03/29 13:31:11;;;;;;;;;;;;;;;;;;4905569;29;19923;-95
2023/03/29 13:43:53;;;;;;;;;;;;;;;;;;4917986;29;19927;-94
2023/03/29 13:46:27;;;;;;;;;;;;;;;;;;4886668;29;19930;-96
2023/03/29 13:48:57;;;;;;;;;;;;;;;;;;4902511;29;19923;-96
2023/03/29 13:51:23;;;;;;;;;;;;;;;;;;4886729;29;19978;-96
2023/03/29 13:53:55;;;;;;;;;;;;;;;;;;4887071;29;19931;-96
2023/03/29 13:56:21;;;;;;;;;;;;;;;;;;4886283;29;19923;-95
2023/03/29 13:58:47;;;;;;;;;;;;;;;;;;4887047;29;20372;-95
2023/03/29 14:01:20;;;;;;;;;;;;;;;;;;4885670;29;20036;-92
2023/03/29 14:03:50;;;;;;;;;;;;;;;;;;4902330;29;20339;-94
2023/03/29 14:06:25;;;;;;;;;;;;;;;;;;4902024;29;20279;-95
2023/03/29 14:08:54;;;;;;;;;;;;;;;;;;4887128;29;22401;-94
2023/03/29 14:11:20;;;;;;;;;;;;;;;;;;4893040;29;19938;-93
2023/03/29 14:13:46;;;;;;;;;;;;;;;;;;4903928;29;19923;-93
2023/03/29 14:16:12;;;;;;;;;;;;;;;;;;4903981;29;19933;-94
2023/03/29 14:18:38;;;;;;;;;;;;;;;;;;4904458;29;19945;-94
2023/03/29 14:21:04;;;;;;;;;;;;;;;;;;4905337;29;19926;-94
2023/03/29 14:36:32;;;;;;;;;;;;;;;;;;5607499;23;19926;-94
2023/03/29 14:38:58;;;;;;;;;;;;;;;;;;4939438;29;19922;-94
2023/03/29 14:41:26;;;;;;;;;;;;;;;;;;4923159;29;19927;-95
2023/03/29 14:43:54;;;;;;;;;;;;;;;;;;4923585;29;19969;-93
2023/03/29 14:46:20;;;;;;;;;;;;;;;;;;4910019;29;19923;-93
2023/03/29 14:48:46;;;;;;;;;;;;;;;;;;4912153;29;20256;-92
2023/03/29 14:51:12;;;;;;;;;;;;;;;;;;4922974;29;19934;-95
2023/03/29 14:53:38;;;;;;;;;;;;;;;;;;4922526;29;19923;-92
2023/03/29 14:56:04;;;;;;;;;;;;;;;;;;4923054;29;19929;-94
2023/03/29 14:58:30;;;;;;;;;;;;;;;;;;4922363;29;19923;-94
2023/03/29 15:01:00;;;;;;;;;;;;;;;;;;4938099;29;19933;-93
2023/03/29 15:03:26;;;;;;;;;;;;;;;;;;4922242;29;19922;-93
2023/03/29 15:05:52;;;;;;;;;;;;;;;;;;4938509;29;20326;-92
2023/03/29 15:08:18;;;;;;;;;;;;;;;;;;4921798;29;20355;-93
2023/03/29 15:10:44;;;;;;;;;;;;;;;;;;4922219;29;19922;-93
2023/03/29 15:13:10;;;;;;;;;;;;;;;;;;4922091;29;19929;-93
2023/03/29 15:15:37;;;;;;;;;;;;;;;;;;4938487;29;19926;-93
2023/03/29 15:18:03;;;;;;;;;;;;;;;;;;4938278;29;20030;-93
2023/03/29 15:20:30;;;;;;;;;;;;;;;;;;4938778;29;20306;-95
2023/03/29 15:22:56;;;;;;;;;;;;;;;;;;4925941;29;19923;-95
2023/03/29 15:25:22;;;;;;;;;;;;;;;;;;4921859;29;19981;-93
2023/03/29 15:27:51;;;;;;;;;;;;;;;;;;4924948;29;19981;-94
2023/03/29 15:30:34;;;;;;;;;;;;;;;;;;4927361;29;19985;-96
2023/03/29 15:33:02;;;;;;;;;;;;;;;;;;4926608;29;19923;-96
2023/03/29 15:35:31;;;;;;;;;;;;;;;;;;4926519;29;19922;-96
2023/03/29 15:38:07;;;;;;;;;;;;;;;;;;;;;
2023/03/29 15:43:37;;;;;;;;;;;;;;;;;;4936738;29;19926;-96
2023/03/29 15:46:03;;;;;;;;;;;;;;;;;;4926786;29;19923;-94
2023/03/29 17:32:59;;;;;;;;;;;;;;;;;;5702666;23;19953;-93
2023/03/29 18:01:49;;;;;;;;;;;;;;;;;;5563253;23;19969;-96
2023/03/29 18:04:16;;;;;;;;;;;;;;;;;;4920636;29;19923;-90
2023/03/29 18:06:42;;;;;;;;;;;;;;;;;;4889187;29;19930;-89
2023/03/29 18:09:08;;;;;;;;;;;;;;;;;;4900887;29;19923;-90
2023/03/29 18:11:35;;;;;;;;;;;;;;;;;;4885706;29;20379;-91
2023/03/29 18:14:01;;;;;;;;;;;;;;;;;;4887109;29;20418;-91
2023/03/29 18:16:27;;;;;;;;;;;;;;;;;;4901585;29;20014;-90
2023/03/29 18:18:54;;;;;;;;;;;;;;;;;;4885939;29;20287;-88
2023/03/29 18:21:20;;;;;;;;;;;;;;;;;;4885164;29;19931;-88
2023/03/29 18:23:46;;;;;;;;;;;;;;;;;;4900342;29;19927;-89
2023/03/29 18:26:13;;;;;;;;;;;;;;;;;;4891865;29;19946;-94
2023/03/29 18:28:46;;;;;;;;;;;;;;;;;;4907213;29;19966;-94
2023/03/29 18:31:12;;;;;;;;;;;;;;;;;;4901517;29;19974;-91
2023/03/29 18:33:41;;;;;;;;;;;;;;;;;;4884533;29;19930;-95
2023/03/29 18:59:24;;;;;;;;;;;;;;;;;;4934880;29;19927;-96
2023/03/29 19:01:51;;;;;;;;;;;;;;;;;;4923184;29;19927;-92
2023/03/29 19:04:19;;;;;;;;;;;;;;;;;;4923860;29;19935;-94
2023/03/29 19:06:46;;;;;;;;;;;;;;;;;;4923711;29;19930;-93
2023/03/29 19:09:12;;;;;;;;;;;;;;;;;;4907995;29;19923;-94
2023/03/29 19:11:38;;;;;;;;;;;;;;;;;;4907402;29;20442;-94
2023/03/29 19:14:07;;;;;;;;;;;;;;;;;;4908036;29;19923;-94
2023/03/29 19:16:33;;;;;;;;;;;;;;;;;;4907523;29;20287;-93
2023/03/29 19:19:04;;;;;;;;;;;;;;;;;;4907893;29;19978;-96
2023/03/29 19:21:31;;;;;;;;;;;;;;;;;;4907800;29;19950;-94
2023/03/29 19:23:59;;;;;;;;;;;;;;;;;;4907678;29;19949;-95
2023/03/29 19:26:25;;;;;;;;;;;;;;;;;;4907126;29;19922;-94
2023/03/29 19:28:51;;;;;;;;;;;;;;;;;;4907229;29;20034;-95
2023/03/29 19:31:17;;;;;;;;;;;;;;;;;;4907323;29;20395;-94
2023/03/29 19:33:43;;;;;;;;;;;;;;;;;;4906981;29;19918;-95
2023/03/29 19:36:09;;;;;;;;;;;;;;;;;;4907600;29;20062;-96
2023/03/29 19:38:35;;;;;;;;;;;;;;;;;;4907077;29;20350;-95
2023/03/29 19:41:01;;;;;;;;;;;;;;;;;;4906835;29;19970;-96
2023/03/29 19:43:27;;;;;;;;;;;;;;;;;;4907372;29;20021;-95
2023/03/29 19:45:55;;;;;;;;;;;;;;;;;;4907025;29;19923;-94
2023/03/29 19:48:23;;;;;;;;;;;;;;;;;;4922856;29;19990;-95
2023/03/29 19:50:49;;;;;;;;;;;;;;;;;;4907205;29;20374;-95
2023/03/29 19:53:14;;;;;;;;;;;;;;;;;;4906963;29;19978;-93
2023/03/29 19:55:44;;;;;;;;;;;;;;;;;;4906562;29;20039;-94
2023/03/29 19:58:13;;;;;;;;;;;;;;;;;;4922462;29;19927;-96
2023/03/29 20:00:40;;;;;;;;;;;;;;;;;;4906663;29;20390;-95
2023/03/29 20:03:11;;;;;;;;;;;;;;;;;;4906811;29;19934;-94
2023/03/29 20:05:37;;;;;;;;;;;;;;;;;;4906604;29;19927;-94
2023/03/29 20:08:03;;;;;;;;;;;;;;;;;;4906500;29;20398;-93
2023/03/29 20:10:29;;;;;;;;;;;;;;;;;;4906403;29;20416;-94
2023/03/29 20:12:55;;;;;;;;;;;;;;;;;;4905627;29;19929;-95
2023/03/29 20:15:26;;;;;;;;;;;;;;;;;;4922386;29;20367;-91
2023/03/29 20:17:52;;;;;;;;;;;;;;;;;;4916685;29;19923;-96
2023/03/29 20:20:18;;;;;;;;;;;;;;;;;;4922889;29;20017;-94
2023/03/29 20:22:44;;;;;;;;;;;;;;;;;;4925147;29;20065;-94
2023/03/29 20:25:11;;;;;;;;;;;;;;;;;;4924184;29;19922;-93
2023/03/29 20:27:37;;;;;;;;;;;;;;;;;;4925115;29;19996;-94
2023/03/29 20:30:03;;;;;;;;;;;;;;;;;;4925374;29;19989;-92
2023/03/29 20:32:29;;;;;;;;;;;;;;;;;;4924952;29;19929;-93
2023/03/29 20:34:55;;;;;;;;;;;;;;;;;;4924824;28;19969;-91
2023/03/29 20:37:21;;;;;;;;;;;;;;;;;;4925075;29;19929;-94
2023/03/29 20:39:48;;;;;;;;;;;;;;;;;;4925522;29;19933;-93
2023/03/29 20:42:16;;;;;;;;;;;;;;;;;;4926632;29;19934;-95
2023/03/29 20:44:49;;;;;;;;;;;;;;;;;;4927086;29;19923;-92
2023/03/29 20:47:15;;;;;;;;;;;;;;;;;;4941014;29;20290;-91
2023/03/29 20:49:41;;;;;;;;;;;;;;;;;;4924542;29;19930;-92
2023/03/29 20:52:19;;;;;;;;;;;;;;;;;;4926344;29;19931;-93
2023/03/29 20:54:45;;;;;;;;;;;;;;;;;;4925122;29;19922;-94
2023/03/29 20:57:14;;;;;;;;;;;;;;;;;;4924872;28;20016;-94
2023/03/29 20:59:41;;;;;;;;;;;;;;;;;;4925036;29;20017;-96
2023/03/29 21:02:08;;;;;;;;;;;;;;;;;;4924616;29;19978;-94
2023/03/29 21:04:38;;;;;;;;;;;;;;;;;;4940673;29;20437;-96
2023/03/29 21:07:05;;;;;;;;;;;;;;;;;;4924513;29;19923;-93
2023/03/29 21:09:33;;;;;;;;;;;;;;;;;;4925115;29;20306;-95
2023/03/29 21:12:01;;;;;;;;;;;;;;;;;;4924898;29;19923;-96
2023/03/29 21:14:29;;;;;;;;;;;;;;;;;;4923913;29;20382;-95
2023/03/29 21:16:58;;;;;;;;;;;;;;;;;;4924640;29;19962;-94
2023/03/29 21:19:24;;;;;;;;;;;;;;;;;;4924555;29;19985;-94
2023/03/29 21:21:50;;;;;;;;;;;;;;;;;;4924249;29;19926;-94
2023/03/29 21:24:16;;;;;;;;;;;;;;;;;;4923800;29;20017;-94
2023/03/29 21:26:42;;;;;;;;;;;;;;;;;;4924065;29;19970;-94
2023/03/29 21:29:08;;;;;;;;;;;;;;;;;;4924904;29;19922;-94
2023/03/29 21:31:34;;;;;;;;;;;;;;;;;;4924289;29;20433;-94
2023/03/29 21:34:03;;;;;;;;;;;;;;;;;;4924333;29;19922;-96
2023/03/29 21:36:29;;;;;;;;;;;;;;;;;;4924110;29;19979;-96
2023/03/29 21:38:57;;;;;;;;;;;;;;;;;;4924369;29;20005;-96
2023/03/29 21:41:29;;;;;;;;;;;;;;;;;;4924888;29;19927;-96
2023/03/29 21:43:56;;;;;;;;;;;;;;;;;;4924202;29;19938;-96
2023/03/29 21:46:25;;;;;;;;;;;;;;;;;;4924107;29;19923;-95
2023/03/29 21:48:51;;;;;;;;;;;;;;;;;;4923779;29;19923;-95